sensor_id;sensor_type;location;lat;lon;timestamp;P1;durP1;ratioP1;P2;durP2;ratioP2
77802;SDS011;66993;48.256;16.422;2024-01-27T00:01:18;3.0;;;1.7;;
77802;SDS011;66993;48.256;16.422;2024-01-27T00:06:15;2.2;;;1.2;;
77802;SDS011;66993;48.256;16.422;2024-01-27T00:11:16;3.4;;;1.8;;
77802;SDS011;66993;48.256;16.422;2024-01-27T00:16:17;2.2;;;1.4;;
77802;SDS011;66993;48.256;16.422;2024-01-27T00:21:19;1.7;;;1.5;;
77802;SDS011;66993;48.256;16.422;2024-01-27T00:26:21;5.2;;;1.8;;
77802;SDS011;66993;48.256;16.422;2024-01-27T00:31:21;2.8;;;1.4;;
77802;SDS011;66993;48.256;16.422;2024-01-27T00:36:24;2.1;;;1.6;;
77802;SDS011;66993;48.256;16.422;2024-01-27T00:41:24;3.4;;;1.3;;
77802;SDS011;66993;48.256;16.422;2024-01-27T00:46:25;2.6;;;1.4;;
77802;SDS011;66993;48.256;16.422;2024-01-27T00:51:27;2.3;;;1.6;;
77802;SDS011;66993;48.256;16.422;2024-01-27T00:56:29;2.5;;;1.5;;
77802;SDS011;66993;48.256;16.422;2024-01-27T01:01:30;2.1;;;1.4;;
77802;SDS011;66993;48.256;16.422;2024-01-27T01:06:32;1.7;;;1.3;;
77802;SDS011;66993;48.256;16.422;2024-01-27T01:11:32;2.1;;;1.4;;
77802;SDS011;66993;48.256;16.422;2024-01-27T01:16:34;2.6;;;1.5;;
77802;SDS011;66993;48.256;16.422;2024-01-27T01:21:35;3.2;;;1.6;;
77802;SDS011;66993;48.256;16.422;2024-01-27T01:26:38;2.5;;;2.3;;
77802;SDS011;66993;48.256;16.422;2024-01-27T01:31:37;1.8;;;1.2;;
77802;SDS011;66993;48.256;16.422;2024-01-27T01:36:39;3.4;;;1.6;;
77802;SDS011;66993;48.256;16.422;2024-01-27T01:41:40;3.7;;;1.7;;
77802;SDS011;66993;48.256;16.422;2024-01-27T01:46:43;4.7;;;1.5;;
77802;SDS011;66993;48.256;16.422;2024-01-27T01:51:43;2.7;;;1.8;;
77802;SDS011;66993;48.256;16.422;2024-01-27T01:56:44;2.1;;;1.4;;
77802;SDS011;66993;48.256;16.422;2024-01-27T02:01:45;1.8;;;1.4;;
77802;SDS011;66993;48.256;16.422;2024-01-27T02:06:47;3.4;;;1.7;;
77802;SDS011;66993;48.256;16.422;2024-01-27T02:11:48;2.7;;;1.7;;
77802;SDS011;66993;48.256;16.422;2024-01-27T02:16:51;2.5;;;1.4;;
77802;SDS011;66993;48.256;16.422;2024-01-27T02:21:51;3.7;;;1.5;;
77802;SDS011;66993;48.256;16.422;2024-01-27T02:26:52;3.2;;;2.4;;
77802;SDS011;66993;48.256;16.422;2024-01-27T02:31:53;3.2;;;1.8;;
77802;SDS011;66993;48.256;16.422;2024-01-27T02:36:55;3.4;;;2.1;;
77802;SDS011;66993;48.256;16.422;2024-01-27T02:41:56;3.6;;;2.1;;
77802;SDS011;66993;48.256;16.422;2024-01-27T02:46:57;3.1;;;1.6;;
77802;SDS011;66993;48.256;16.422;2024-01-27T02:51:58;3.6;;;1.7;;
77802;SDS011;66993;48.256;16.422;2024-01-27T02:57:00;3.9;;;1.9;;
77802;SDS011;66993;48.256;16.422;2024-01-27T03:02:01;3.3;;;2.0;;
77802;SDS011;66993;48.256;16.422;2024-01-27T03:07:05;3.8;;;1.8;;
77802;SDS011;66993;48.256;16.422;2024-01-27T03:12:04;3.6;;;1.6;;
77802;SDS011;66993;48.256;16.422;2024-01-27T03:17:05;3.5;;;1.9;;
77802;SDS011;66993;48.256;16.422;2024-01-27T03:22:07;4.2;;;2.0;;
77802;SDS011;66993;48.256;16.422;2024-01-27T03:27:13;3.6;;;1.9;;
77802;SDS011;66993;48.256;16.422;2024-01-27T03:32:09;2.7;;;1.9;;
77802;SDS011;66993;48.256;16.422;2024-01-27T03:37:11;3.5;;;2.0;;
77802;SDS011;66993;48.256;16.422;2024-01-27T03:42:12;4.6;;;1.9;;
77802;SDS011;66993;48.256;16.422;2024-01-27T03:47:18;3.2;;;2.3;;
77802;SDS011;66993;48.256;16.422;2024-01-27T03:52:17;3.5;;;1.9;;
77802;SDS011;66993;48.256;16.422;2024-01-27T03:57:16;3.9;;;2.2;;
77802;SDS011;66993;48.256;16.422;2024-01-27T04:02:18;4.0;;;1.8;;
77802;SDS011;66993;48.256;16.422;2024-01-27T04:07:18;2.8;;;1.9;;
77802;SDS011;66993;48.256;16.422;2024-01-27T04:12:21;3.7;;;2.3;;
77802;SDS011;66993;48.256;16.422;2024-01-27T04:17:21;4.6;;;2.2;;
77802;SDS011;66993;48.256;16.422;2024-01-27T04:22:22;3.9;;;2.5;;
77802;SDS011;66993;48.256;16.422;2024-01-27T04:27:24;3.9;;;2.3;;
77802;SDS011;66993;48.256;16.422;2024-01-27T04:32:25;3.6;;;2.0;;
77802;SDS011;66993;48.256;16.422;2024-01-27T04:37:26;4.5;;;2.4;;
77802;SDS011;66993;48.256;16.422;2024-01-27T04:42:28;4.9;;;2.0;;
77802;SDS011;66993;48.256;16.422;2024-01-27T04:47:29;4.2;;;2.4;;
77802;SDS011;66993;48.256;16.422;2024-01-27T04:52:32;3.5;;;2.2;;
77802;SDS011;66993;48.256;16.422;2024-01-27T04:57:32;5.6;;;2.5;;
77802;SDS011;66993;48.256;16.422;2024-01-27T05:02:33;3.7;;;2.8;;
77802;SDS011;66993;48.256;16.422;2024-01-27T05:07:34;4.3;;;2.6;;
77802;SDS011;66993;48.256;16.422;2024-01-27T05:12:36;4.0;;;2.8;;
77802;SDS011;66993;48.256;16.422;2024-01-27T05:17:37;4.3;;;2.3;;
77802;SDS011;66993;48.256;16.422;2024-01-27T05:22:38;3.8;;;2.5;;
77802;SDS011;66993;48.256;16.422;2024-01-27T05:27:39;5.9;;;2.8;;
77802;SDS011;66993;48.256;16.422;2024-01-27T05:32:41;4.3;;;2.7;;
77802;SDS011;66993;48.256;16.422;2024-01-27T05:37:42;5.8;;;3.2;;
77802;SDS011;66993;48.256;16.422;2024-01-27T05:42:44;5.9;;;3.7;;
77802;SDS011;66993;48.256;16.422;2024-01-27T05:47:45;7.2;;;3.8;;
77802;SDS011;66993;48.256;16.422;2024-01-27T05:52:46;5.6;;;3.2;;
77802;SDS011;66993;48.256;16.422;2024-01-27T05:57:48;6.8;;;3.3;;
77802;SDS011;66993;48.256;16.422;2024-01-27T06:02:50;4.3;;;3.2;;
77802;SDS011;66993;48.256;16.422;2024-01-27T06:07:50;5.4;;;3.1;;
77802;SDS011;66993;48.256;16.422;2024-01-27T06:12:51;5.6;;;3.6;;
77802;SDS011;66993;48.256;16.422;2024-01-27T06:17:53;6.1;;;3.8;;
77802;SDS011;66993;48.256;16.422;2024-01-27T06:22:56;6.1;;;3.1;;
77802;SDS011;66993;48.256;16.422;2024-01-27T06:27:55;7.5;;;3.6;;
77802;SDS011;66993;48.256;16.422;2024-01-27T06:32:57;6.5;;;3.3;;
77802;SDS011;66993;48.256;16.422;2024-01-27T06:37:58;9.1;;;4.0;;
77802;SDS011;66993;48.256;16.422;2024-01-27T06:43:00;8.7;;;5.3;;
77802;SDS011;66993;48.256;16.422;2024-01-27T06:48:01;8.1;;;3.5;;
77802;SDS011;66993;48.256;16.422;2024-01-27T06:53:03;5.6;;;3.8;;
77802;SDS011;66993;48.256;16.422;2024-01-27T06:58:03;5.5;;;2.9;;
77802;SDS011;66993;48.256;16.422;2024-01-27T07:03:05;6.1;;;3.4;;
77802;SDS011;66993;48.256;16.422;2024-01-27T07:08:06;7.6;;;3.5;;
77802;SDS011;66993;48.256;16.422;2024-01-27T07:13:07;6.9;;;3.6;;
77802;SDS011;66993;48.256;16.422;2024-01-27T07:18:09;7.3;;;4.3;;
77802;SDS011;66993;48.256;16.422;2024-01-27T07:23:10;7.7;;;3.6;;
77802;SDS011;66993;48.256;16.422;2024-01-27T07:28:11;7.3;;;4.2;;
77802;SDS011;66993;48.256;16.422;2024-01-27T07:33:13;9.0;;;4.2;;
77802;SDS011;66993;48.256;16.422;2024-01-27T07:38:14;7.0;;;3.8;;
77802;SDS011;66993;48.256;16.422;2024-01-27T07:43:15;7.2;;;3.8;;
77802;SDS011;66993;48.256;16.422;2024-01-27T07:48:16;6.4;;;3.5;;
77802;SDS011;66993;48.256;16.422;2024-01-27T07:53:18;7.2;;;3.2;;
77802;SDS011;66993;48.256;16.422;2024-01-27T07:58:19;6.1;;;3.1;;
77802;SDS011;66993;48.256;16.422;2024-01-27T08:03:20;6.8;;;2.8;;
77802;SDS011;66993;48.256;16.422;2024-01-27T08:08:22;4.0;;;2.8;;
77802;SDS011;66993;48.256;16.422;2024-01-27T08:13:23;6.2;;;2.8;;
77802;SDS011;66993;48.256;16.422;2024-01-27T08:18:24;6.6;;;2.9;;
77802;SDS011;66993;48.256;16.422;2024-01-27T08:23:26;4.3;;;2.8;;
77802;SDS011;66993;48.256;16.422;2024-01-27T08:28:27;4.9;;;2.9;;
77802;SDS011;66993;48.256;16.422;2024-01-27T08:33:29;5.9;;;3.1;;
77802;SDS011;66993;48.256;16.422;2024-01-27T08:38:30;5.3;;;2.7;;
77802;SDS011;66993;48.256;16.422;2024-01-27T08:43:32;6.3;;;2.8;;
77802;SDS011;66993;48.256;16.422;2024-01-27T08:48:32;6.4;;;3.1;;
77802;SDS011;66993;48.256;16.422;2024-01-27T08:53:34;6.7;;;2.6;;
77802;SDS011;66993;48.256;16.422;2024-01-27T08:58:35;7.0;;;2.9;;
77802;SDS011;66993;48.256;16.422;2024-01-27T09:03:38;5.9;;;3.1;;
77802;SDS011;66993;48.256;16.422;2024-01-27T09:08:38;5.9;;;2.8;;
77802;SDS011;66993;48.256;16.422;2024-01-27T09:13:39;7.9;;;3.7;;
77802;SDS011;66993;48.256;16.422;2024-01-27T09:18:40;9.0;;;3.6;;
77802;SDS011;66993;48.256;16.422;2024-01-27T09:23:47;11.6;;;4.1;;
77802;SDS011;66993;48.256;16.422;2024-01-27T09:28:43;8.4;;;3.2;;
77802;SDS011;66993;48.256;16.422;2024-01-27T09:33:44;6.6;;;3.7;;
77802;SDS011;66993;48.256;16.422;2024-01-27T09:38:46;7.0;;;4.3;;
77802;SDS011;66993;48.256;16.422;2024-01-27T09:43:47;7.5;;;3.7;;
77802;SDS011;66993;48.256;16.422;2024-01-27T09:48:49;10.0;;;4.3;;
77802;SDS011;66993;48.256;16.422;2024-01-27T09:53:50;8.6;;;4.0;;
77802;SDS011;66993;48.256;16.422;2024-01-27T09:58:51;8.3;;;4.4;;
77802;SDS011;66993;48.256;16.422;2024-01-27T10:03:52;8.4;;;4.3;;
77802;SDS011;66993;48.256;16.422;2024-01-27T10:08:54;6.6;;;3.4;;
77802;SDS011;66993;48.256;16.422;2024-01-27T10:13:55;9.1;;;4.0;;
77802;SDS011;66993;48.256;16.422;2024-01-27T10:18:59;8.4;;;3.5;;
77802;SDS011;66993;48.256;16.422;2024-01-27T10:23:59;8.8;;;4.4;;
77802;SDS011;66993;48.256;16.422;2024-01-27T10:29:00;10.0;;;4.0;;
77802;SDS011;66993;48.256;16.422;2024-01-27T10:34:00;6.5;;;3.3;;
77802;SDS011;66993;48.256;16.422;2024-01-27T10:39:02;7.8;;;4.5;;
77802;SDS011;66993;48.256;16.422;2024-01-27T10:44:03;10.0;;;3.6;;
77802;SDS011;66993;48.256;16.422;2024-01-27T10:49:06;7.4;;;2.7;;
77802;SDS011;66993;48.256;16.422;2024-01-27T10:54:06;6.0;;;2.7;;
77802;SDS011;66993;48.256;16.422;2024-01-27T10:59:07;7.9;;;2.5;;
77802;SDS011;66993;48.256;16.422;2024-01-27T11:04:09;8.9;;;3.0;;
77802;SDS011;66993;48.256;16.422;2024-01-27T11:09:10;8.3;;;2.4;;
77802;SDS011;66993;48.256;16.422;2024-01-27T11:14:11;7.6;;;2.5;;
77802;SDS011;66993;48.256;16.422;2024-01-27T11:19:13;7.3;;;2.9;;
77802;SDS011;66993;48.256;16.422;2024-01-27T11:24:14;7.3;;;2.6;;
77802;SDS011;66993;48.256;16.422;2024-01-27T11:29:18;8.1;;;3.0;;
77802;SDS011;66993;48.256;16.422;2024-01-27T11:34:17;6.1;;;2.4;;
77802;SDS011;66993;48.256;16.422;2024-01-27T11:39:24;7.2;;;2.2;;
77802;SDS011;66993;48.256;16.422;2024-01-27T11:44:19;6.8;;;2.8;;
77802;SDS011;66993;48.256;16.422;2024-01-27T11:49:21;5.2;;;2.0;;
77802;SDS011;66993;48.256;16.422;2024-01-27T11:54:23;6.3;;;2.2;;
77802;SDS011;66993;48.256;16.422;2024-01-27T11:59:23;7.1;;;2.5;;
77802;SDS011;66993;48.256;16.422;2024-01-27T12:04:25;5.9;;;2.3;;
77802;SDS011;66993;48.256;16.422;2024-01-27T12:09:26;7.1;;;2.4;;
77802;SDS011;66993;48.256;16.422;2024-01-27T12:19:29;6.1;;;2.6;;
77802;SDS011;66993;48.256;16.422;2024-01-27T12:24:30;5.6;;;2.1;;
77802;SDS011;66993;48.256;16.422;2024-01-27T12:29:33;6.8;;;2.4;;
77802;SDS011;66993;48.256;16.422;2024-01-27T12:34:33;6.3;;;2.6;;
77802;SDS011;66993;48.256;16.422;2024-01-27T12:39:34;4.7;;;2.2;;
77802;SDS011;66993;48.256;16.422;2024-01-27T12:44:39;6.0;;;2.4;;
77802;SDS011;66993;48.256;16.422;2024-01-27T12:49:37;5.4;;;2.3;;
77802;SDS011;66993;48.256;16.422;2024-01-27T12:54:39;6.5;;;2.4;;
77802;SDS011;66993;48.256;16.422;2024-01-27T12:59:40;7.1;;;3.5;;
77802;SDS011;66993;48.256;16.422;2024-01-27T13:04:41;7.5;;;3.0;;
77802;SDS011;66993;48.256;16.422;2024-01-27T13:09:42;7.7;;;2.9;;
77802;SDS011;66993;48.256;16.422;2024-01-27T13:14:44;5.4;;;3.0;;
77802;SDS011;66993;48.256;16.422;2024-01-27T13:19:45;6.8;;;2.9;;
77802;SDS011;66993;48.256;16.422;2024-01-27T13:24:46;6.2;;;3.4;;
77802;SDS011;66993;48.256;16.422;2024-01-27T13:29:47;6.0;;;3.4;;
77802;SDS011;66993;48.256;16.422;2024-01-27T13:34:49;7.3;;;2.7;;
77802;SDS011;66993;48.256;16.422;2024-01-27T13:39:51;6.4;;;2.7;;
77802;SDS011;66993;48.256;16.422;2024-01-27T13:44:52;6.3;;;2.7;;
77802;SDS011;66993;48.256;16.422;2024-01-27T13:49:53;6.8;;;3.1;;
77802;SDS011;66993;48.256;16.422;2024-01-27T13:54:54;8.1;;;2.9;;
77802;SDS011;66993;48.256;16.422;2024-01-27T13:59:55;7.0;;;3.1;;
77802;SDS011;66993;48.256;16.422;2024-01-27T14:04:57;6.6;;;2.1;;
77802;SDS011;66993;48.256;16.422;2024-01-27T14:09:58;6.1;;;2.5;;
77802;SDS011;66993;48.256;16.422;2024-01-27T14:15:03;8.3;;;2.7;;
77802;SDS011;66993;48.256;16.422;2024-01-27T14:20:01;6.3;;;2.5;;
77802;SDS011;66993;48.256;16.422;2024-01-27T14:25:03;9.3;;;3.1;;
77802;SDS011;66993;48.256;16.422;2024-01-27T14:30:04;6.0;;;2.6;;
77802;SDS011;66993;48.256;16.422;2024-01-27T14:35:05;7.7;;;3.3;;
77802;SDS011;66993;48.256;16.422;2024-01-27T14:40:06;9.2;;;3.4;;
77802;SDS011;66993;48.256;16.422;2024-01-27T14:45:09;8.0;;;3.2;;
77802;SDS011;66993;48.256;16.422;2024-01-27T14:50:09;9.6;;;4.0;;
77802;SDS011;66993;48.256;16.422;2024-01-27T14:55:10;6.7;;;3.5;;
77802;SDS011;66993;48.256;16.422;2024-01-27T15:00:12;8.2;;;3.6;;
77802;SDS011;66993;48.256;16.422;2024-01-27T15:05:13;10.9;;;4.2;;
77802;SDS011;66993;48.256;16.422;2024-01-27T15:10:14;10.3;;;3.5;;
77802;SDS011;66993;48.256;16.422;2024-01-27T15:15:16;8.1;;;3.5;;
77802;SDS011;66993;48.256;16.422;2024-01-27T15:20:17;7.6;;;3.3;;
77802;SDS011;66993;48.256;16.422;2024-01-27T15:25:18;9.8;;;3.2;;
77802;SDS011;66993;48.256;16.422;2024-01-27T15:30:19;6.3;;;3.4;;
77802;SDS011;66993;48.256;16.422;2024-01-27T15:35:21;6.9;;;2.7;;
77802;SDS011;66993;48.256;16.422;2024-01-27T15:40:22;8.0;;;3.0;;
77802;SDS011;66993;48.256;16.422;2024-01-27T15:45:24;6.0;;;2.3;;
77802;SDS011;66993;48.256;16.422;2024-01-27T15:50:25;7.5;;;2.9;;
77802;SDS011;66993;48.256;16.422;2024-01-27T15:55:26;5.5;;;2.6;;
77802;SDS011;66993;48.256;16.422;2024-01-27T16:00:27;7.2;;;2.6;;
77802;SDS011;66993;48.256;16.422;2024-01-27T16:05:29;7.0;;;2.9;;
77802;SDS011;66993;48.256;16.422;2024-01-27T16:10:30;7.4;;;2.7;;
77802;SDS011;66993;48.256;16.422;2024-01-27T16:15:32;7.3;;;3.1;;
77802;SDS011;66993;48.256;16.422;2024-01-27T16:20:33;7.7;;;2.6;;
77802;SDS011;66993;48.256;16.422;2024-01-27T16:25:35;5.1;;;2.7;;
77802;SDS011;66993;48.256;16.422;2024-01-27T16:30:35;8.4;;;3.3;;
77802;SDS011;66993;48.256;16.422;2024-01-27T16:35:37;5.6;;;2.9;;
77802;SDS011;66993;48.256;16.422;2024-01-27T16:40:38;7.7;;;3.1;;
77802;SDS011;66993;48.256;16.422;2024-01-27T16:45:42;7.8;;;3.5;;
77802;SDS011;66993;48.256;16.422;2024-01-27T16:50:41;5.9;;;2.8;;
77802;SDS011;66993;48.256;16.422;2024-01-27T16:55:48;7.9;;;3.6;;
77802;SDS011;66993;48.256;16.422;2024-01-27T17:00:43;7.3;;;3.2;;
77802;SDS011;66993;48.256;16.422;2024-01-27T17:05:45;6.9;;;3.1;;
77802;SDS011;66993;48.256;16.422;2024-01-27T17:10:46;8.0;;;3.3;;
77802;SDS011;66993;48.256;16.422;2024-01-27T17:15:47;7.9;;;2.8;;
77802;SDS011;66993;48.256;16.422;2024-01-27T17:20:49;9.0;;;3.2;;
77802;SDS011;66993;48.256;16.422;2024-01-27T17:25:50;8.0;;;3.0;;
77802;SDS011;66993;48.256;16.422;2024-01-27T17:30:52;6.8;;;4.4;;
77802;SDS011;66993;48.256;16.422;2024-01-27T17:35:53;7.8;;;3.3;;
77802;SDS011;66993;48.256;16.422;2024-01-27T17:40:54;6.5;;;3.1;;
77802;SDS011;66993;48.256;16.422;2024-01-27T17:45:55;7.4;;;3.4;;
77802;SDS011;66993;48.256;16.422;2024-01-27T17:50:56;10.7;;;3.0;;
77802;SDS011;66993;48.256;16.422;2024-01-27T17:55:58;8.0;;;3.0;;
77802;SDS011;66993;48.256;16.422;2024-01-27T18:01:01;7.8;;;3.3;;
77802;SDS011;66993;48.256;16.422;2024-01-27T18:06:00;8.1;;;3.5;;
77802;SDS011;66993;48.256;16.422;2024-01-27T18:11:04;9.0;;;3.6;;
77802;SDS011;66993;48.256;16.422;2024-01-27T18:16:03;10.1;;;3.4;;
77802;SDS011;66993;48.256;16.422;2024-01-27T18:21:04;6.3;;;3.3;;
77802;SDS011;66993;48.256;16.422;2024-01-27T18:26:06;8.8;;;4.0;;
77802;SDS011;66993;48.256;16.422;2024-01-27T18:31:10;8.1;;;4.2;;
77802;SDS011;66993;48.256;16.422;2024-01-27T18:36:08;11.9;;;4.5;;
77802;SDS011;66993;48.256;16.422;2024-01-27T18:41:10;5.9;;;3.0;;
77802;SDS011;66993;48.256;16.422;2024-01-27T18:46:11;9.0;;;3.2;;
77802;SDS011;66993;48.256;16.422;2024-01-27T18:51:12;8.0;;;3.0;;
77802;SDS011;66993;48.256;16.422;2024-01-27T18:56:14;8.5;;;3.9;;
77802;SDS011;66993;48.256;16.422;2024-01-27T19:01:15;8.1;;;3.3;;
77802;SDS011;66993;48.256;16.422;2024-01-27T19:06:16;6.7;;;3.2;;
77802;SDS011;66993;48.256;16.422;2024-01-27T19:11:18;7.8;;;3.1;;
77802;SDS011;66993;48.256;16.422;2024-01-27T19:16:19;7.9;;;3.9;;
77802;SDS011;66993;48.256;16.422;2024-01-27T19:21:20;6.1;;;2.9;;
77802;SDS011;66993;48.256;16.422;2024-01-27T19:26:22;7.6;;;2.8;;
77802;SDS011;66993;48.256;16.422;2024-01-27T19:31:23;8.9;;;3.0;;
77802;SDS011;66993;48.256;16.422;2024-01-27T19:36:29;8.1;;;3.1;;
77802;SDS011;66993;48.256;16.422;2024-01-27T19:41:26;9.7;;;3.7;;
77802;SDS011;66993;48.256;16.422;2024-01-27T19:46:27;8.3;;;3.2;;
77802;SDS011;66993;48.256;16.422;2024-01-27T19:51:31;7.5;;;4.0;;
77802;SDS011;66993;48.256;16.422;2024-01-27T19:56:30;7.8;;;3.6;;
77802;SDS011;66993;48.256;16.422;2024-01-27T20:01:35;9.5;;;3.6;;
77802;SDS011;66993;48.256;16.422;2024-01-27T20:06:32;7.8;;;3.2;;
77802;SDS011;66993;48.256;16.422;2024-01-27T20:11:34;5.6;;;3.0;;
77802;SDS011;66993;48.256;16.422;2024-01-27T20:16:35;8.3;;;3.1;;
77802;SDS011;66993;48.256;16.422;2024-01-27T20:21:36;7.3;;;3.2;;
77802;SDS011;66993;48.256;16.422;2024-01-27T20:26:38;10.7;;;3.8;;
77802;SDS011;66993;48.256;16.422;2024-01-27T20:31:40;6.8;;;3.6;;
77802;SDS011;66993;48.256;16.422;2024-01-27T20:36:44;7.8;;;3.8;;
77802;SDS011;66993;48.256;16.422;2024-01-27T20:41:42;8.7;;;3.8;;
77802;SDS011;66993;48.256;16.422;2024-01-27T20:46:43;8.2;;;3.4;;
77802;SDS011;66993;48.256;16.422;2024-01-27T20:51:45;8.3;;;3.8;;
77802;SDS011;66993;48.256;16.422;2024-01-27T20:56:45;7.4;;;3.9;;
77802;SDS011;66993;48.256;16.422;2024-01-27T21:01:47;8.6;;;3.6;;
77802;SDS011;66993;48.256;16.422;2024-01-27T21:06:48;9.0;;;3.8;;
77802;SDS011;66993;48.256;16.422;2024-01-27T21:11:50;8.6;;;3.9;;
77802;SDS011;66993;48.256;16.422;2024-01-27T21:16:51;8.4;;;3.3;;
77802;SDS011;66993;48.256;16.422;2024-01-27T21:21:52;7.4;;;3.5;;
77802;SDS011;66993;48.256;16.422;2024-01-27T21:26:53;7.5;;;3.5;;
77802;SDS011;66993;48.256;16.422;2024-01-27T21:31:56;7.4;;;4.7;;
77802;SDS011;66993;48.256;16.422;2024-01-27T21:36:56;7.2;;;3.0;;
77802;SDS011;66993;48.256;16.422;2024-01-27T21:41:57;8.5;;;3.4;;
77802;SDS011;66993;48.256;16.422;2024-01-27T21:46:58;8.1;;;3.7;;
77802;SDS011;66993;48.256;16.422;2024-01-27T21:52:01;6.7;;;3.5;;
77802;SDS011;66993;48.256;16.422;2024-01-27T21:57:01;7.0;;;3.4;;
77802;SDS011;66993;48.256;16.422;2024-01-27T22:02:03;10.0;;;3.4;;
77802;SDS011;66993;48.256;16.422;2024-01-27T22:07:04;6.4;;;3.2;;
77802;SDS011;66993;48.256;16.422;2024-01-27T22:12:06;8.2;;;4.1;;
77802;SDS011;66993;48.256;16.422;2024-01-27T22:17:06;8.1;;;2.7;;
77802;SDS011;66993;48.256;16.422;2024-01-27T22:22:08;9.2;;;3.5;;
77802;SDS011;66993;48.256;16.422;2024-01-27T22:27:09;6.9;;;3.1;;
77802;SDS011;66993;48.256;16.422;2024-01-27T22:32:11;8.9;;;3.3;;
77802;SDS011;66993;48.256;16.422;2024-01-27T22:37:11;8.4;;;3.7;;
77802;SDS011;66993;48.256;16.422;2024-01-27T22:42:13;8.6;;;3.0;;
77802;SDS011;66993;48.256;16.422;2024-01-27T22:47:14;7.8;;;3.1;;
77802;SDS011;66993;48.256;16.422;2024-01-27T22:52:15;8.0;;;3.2;;
77802;SDS011;66993;48.256;16.422;2024-01-27T22:57:17;9.7;;;3.6;;
77802;SDS011;66993;48.256;16.422;2024-01-27T23:02:18;11.0;;;4.5;;
77802;SDS011;66993;48.256;16.422;2024-01-27T23:07:19;8.1;;;4.3;;
77802;SDS011;66993;48.256;16.422;2024-01-27T23:12:21;7.3;;;3.5;;
77802;SDS011;66993;48.256;16.422;2024-01-27T23:17:22;9.5;;;3.7;;
77802;SDS011;66993;48.256;16.422;2024-01-27T23:22:23;8.6;;;3.4;;
77802;SDS011;66993;48.256;16.422;2024-01-27T23:27:25;9.0;;;3.3;;
77802;SDS011;66993;48.256;16.422;2024-01-27T23:32:26;9.0;;;3.4;;
77802;SDS011;66993;48.256;16.422;2024-01-27T23:37:27;10.2;;;4.0;;
77802;SDS011;66993;48.256;16.422;2024-01-27T23:42:29;7.1;;;3.1;;
77802;SDS011;66993;48.256;16.422;2024-01-27T23:47:30;8.9;;;3.9;;
77802;SDS011;66993;48.256;16.422;2024-01-27T23:52:35;10.7;;;3.3;;
77802;SDS011;66993;48.256;16.422;2024-01-27T23:57:32;7.1;;;3.2;;
